Time;durP1;ratioP1;P1;durP2;ratioP2;P2;SDS_P1;SDS_P2;PMS_P1;PMS_P2;Temp;Humidity;BMP_temperature;BMP_pressure;BME280_temperature;BME280_humidity;BME280_pressure;Samples;Min_cycle;Max_cycle;Signal;HPM_P1;HPM_P2
2023/08/08 00:01:44;;;;;;;3.35;1.50;;;14.60;96.40;;;;;;5137817;27;20031;-69
2023/08/08 00:04:10;;;;;;;2.60;1.23;;;14.60;96.40;;;;;;5137561;27;20419;-69
2023/08/08 00:06:36;;;;;;;2.08;1.42;;;14.60;96.30;;;;;;5137095;27;20020;-69
2023/08/08 00:09:03;;;;;;;3.13;1.52;;;14.60;96.30;;;;;;5137312;27;20031;-76
2023/08/08 00:11:30;;;;;;;1.83;1.25;;;14.60;96.10;;;;;;5137720;27;20031;-69
2023/08/08 00:13:56;;;;;;;4.60;1.40;;;14.60;96.00;;;;;;5137110;27;20062;-69
2023/08/08 00:16:22;;;;;;;2.05;1.48;;;14.50;96.10;;;;;;5136749;27;20447;-69
2023/08/08 00:18:50;;;;;;;2.15;1.20;;;14.60;95.90;;;;;;5137414;27;20054;-69
2023/08/08 00:21:16;;;;;;;2.30;1.10;;;14.60;95.90;;;;;;5118529;27;20051;-69
2023/08/08 00:23:41;;;;;;;2.03;1.13;;;14.50;96.00;;;;;;5137047;27;20034;-69
2023/08/08 00:26:07;;;;;;;1.20;1.10;;;14.50;95.90;;;;;;5136518;27;20105;-69
2023/08/08 00:28:33;;;;;;;1.80;1.20;;;14.50;95.80;;;;;;5137149;27;20409;-69
2023/08/08 00:30:58;;;;;;;2.53;1.40;;;14.50;95.60;;;;;;5136884;27;20023;-69
2023/08/08 00:33:24;;;;;;;2.83;1.60;;;14.60;95.70;;;;;;5136641;27;20043;-69
2023/08/08 00:35:49;;;;;;;2.88;1.15;;;14.50;95.70;;;;;;5135547;27;20066;-69
2023/08/08 00:38:16;;;;;;;3.45;1.23;;;14.50;95.70;;;;;;5118107;27;20116;-69
2023/08/08 00:40:42;;;;;;;3.30;1.40;;;14.50;95.80;;;;;;5116352;28;20027;-69
2023/08/08 00:43:08;;;;;;;3.50;1.67;;;14.50;95.70;;;;;;5115974;28;20028;-69
2023/08/08 00:45:34;;;;;;;2.58;1.50;;;14.50;95.70;;;;;;5116031;28;20380;-69
2023/08/08 00:48:00;;;;;;;3.00;1.60;;;14.50;95.70;;;;;;5116037;28;20365;-69
2023/08/08 00:50:26;;;;;;;2.10;1.13;;;14.50;95.80;;;;;;5097340;28;20133;-69
2023/08/08 00:52:52;;;;;;;1.70;1.45;;;14.50;96.00;;;;;;5125548;27;20042;-68
2023/08/08 00:55:18;;;;;;;2.17;1.52;;;14.50;96.00;;;;;;5136313;27;20406;-68
2023/08/08 00:57:44;;;;;;;1.73;1.40;;;14.50;96.10;;;;;;5136284;27;20106;-68
2023/08/08 01:00:10;;;;;;;3.30;1.40;;;14.50;96.20;;;;;;5135914;27;20026;-69
2023/08/08 01:02:36;;;;;;;1.50;1.10;;;14.50;96.20;;;;;;5136219;27;20540;-68
2023/08/08 01:05:03;;;;;;;1.50;1.10;;;14.50;96.30;;;;;;5136518;27;20023;-68
2023/08/08 01:07:41;;;;;;;3.75;1.10;;;14.40;96.20;;;;;;5135738;27;20387;-68
2023/08/08 01:10:10;;;;;;;2.45;1.42;;;14.40;96.20;;;;;;5118179;27;20075;-68
2023/08/08 01:12:50;;;;;;;2.67;1.50;;;14.40;96.20;;;;;;5135981;27;20462;-68
2023/08/08 01:15:17;;;;;;;1.67;1.20;;;14.40;96.20;;;;;;5135965;27;20024;-67
2023/08/08 01:17:43;;;;;;;2.10;1.30;;;14.40;96.00;;;;;;5136208;27;20458;-67
2023/08/08 01:20:10;;;;;;;2.30;1.42;;;14.40;96.20;;;;;;5136049;27;20035;-68
2023/08/08 01:22:45;;;;;;;3.03;1.50;;;14.40;96.40;;;;;;5118011;27;20371;-68
2023/08/08 01:25:11;;;;;;;2.30;1.20;;;14.40;96.30;;;;;;5135831;27;20039;-68
2023/08/08 01:27:37;;;;;;;4.65;1.20;;;14.40;96.40;;;;;;5136057;27;20019;-68
2023/08/08 01:30:03;;;;;;;3.22;1.30;;;14.40;96.40;;;;;;5136118;27;20026;-68
2023/08/08 01:32:29;;;;;;;3.90;1.50;;;14.40;96.50;;;;;;5135486;27;20027;-69
2023/08/08 01:34:55;;;;;;;1.85;1.42;;;14.40;96.50;;;;;;5135905;27;20075;-68
2023/08/08 01:37:30;;;;;;;3.58;1.50;;;14.30;96.50;;;;;;5135379;27;20429;-68
2023/08/08 01:39:59;;;;;;;1.67;1.15;;;14.40;96.60;;;;;;5136097;27;20027;-69
2023/08/08 01:42:26;;;;;;;1.95;1.23;;;14.40;96.70;;;;;;5135060;27;20022;-69
2023/08/08 01:44:54;;;;;;;1.85;1.40;;;14.40;97.00;;;;;;5135746;27;20038;-68
2023/08/08 01:47:19;;;;;;;2.38;1.48;;;14.30;96.80;;;;;;5134930;27;20019;-69
2023/08/08 01:49:45;;;;;;;2.28;1.20;;;14.40;96.90;;;;;;5135643;27;20092;-69
2023/08/08 01:52:11;;;;;;;1.80;1.10;;;14.30;96.90;;;;;;5135559;27;20055;-69
2023/08/08 01:54:36;;;;;;;4.45;1.58;;;14.40;97.00;;;;;;5135129;27;20086;-69
2023/08/08 01:57:02;;;;;;;1.98;1.38;;;14.40;96.90;;;;;;5135541;27;20034;-69
2023/08/08 01:59:28;;;;;;;1.30;1.20;;;14.40;96.80;;;;;;5134985;27;20030;-69
2023/08/08 02:01:53;;;;;;;2.10;1.23;;;14.40;96.60;;;;;;5135453;27;20019;-69
2023/08/08 02:04:20;;;;;;;1.92;1.33;;;14.40;96.70;;;;;;5134667;27;20035;-69
2023/08/08 02:06:45;;;;;;;1.88;1.23;;;14.40;96.70;;;;;;5135207;27;20352;-68
2023/08/08 02:09:13;;;;;;;2.35;1.10;;;14.40;96.80;;;;;;5135180;27;20059;-68
2023/08/08 02:11:39;;;;;;;2.65;1.40;;;14.40;96.90;;;;;;5134438;27;20064;-69
2023/08/08 02:14:04;;;;;;;1.38;1.02;;;14.30;96.90;;;;;;5134683;27;20116;-69
2023/08/08 02:16:30;;;;;;;4.40;1.30;;;14.40;97.00;;;;;;5134681;27;20527;-69
2023/08/08 02:18:56;;;;;;;2.88;1.25;;;14.40;97.00;;;;;;5134970;27;20046;-69
2023/08/08 02:21:21;;;;;;;1.88;1.40;;;14.30;96.90;;;;;;5134592;27;20106;-69
2023/08/08 02:23:47;;;;;;;2.08;1.42;;;14.30;96.90;;;;;;5134836;27;20046;-70
2023/08/08 02:26:12;;;;;;;2.55;1.05;;;14.30;96.90;;;;;;5134899;27;20471;-69
2023/08/08 02:28:38;;;;;;;2.35;1.58;;;14.30;97.10;;;;;;5134530;27;20219;-69
2023/08/08 02:31:04;;;;;;;1.50;1.25;;;14.30;97.10;;;;;;5134860;27;20099;-69
2023/08/08 02:33:29;;;;;;;1.23;1.00;;;14.30;97.10;;;;;;5134316;27;20035;-69
2023/08/08 02:35:56;;;;;;;2.67;1.10;;;14.30;97.00;;;;;;5134466;27;20068;-69
2023/08/08 02:38:21;;;;;;;1.27;1.10;;;14.30;96.90;;;;;;5134240;27;20075;-69
2023/08/08 02:40:47;;;;;;;2.75;1.48;;;14.30;97.00;;;;;;5134306;27;20023;-69
2023/08/08 02:43:12;;;;;;;3.45;1.40;;;14.30;97.10;;;;;;5131718;27;20371;-68
2023/08/08 02:45:38;;;;;;;2.10;1.20;;;14.30;97.10;;;;;;5113597;28;20212;-69
2023/08/08 02:48:04;;;;;;;1.90;1.27;;;14.30;97.00;;;;;;5113473;28;20046;-69
2023/08/08 02:50:30;;;;;;;2.88;1.40;;;14.30;97.10;;;;;;5113002;28;20115;-70
2023/08/08 02:52:57;;;;;;;1.83;1.30;;;14.30;97.10;;;;;;5113493;28;20034;-68
2023/08/08 02:55:22;;;;;;;3.38;1.60;;;14.20;97.10;;;;;;5113332;28;20173;-69
2023/08/08 02:57:48;;;;;;;2.08;1.40;;;14.20;97.10;;;;;;5095753;28;20103;-69
2023/08/08 03:00:14;;;;;;;2.65;1.50;;;14.20;97.10;;;;;;5124149;27;20046;-67
2023/08/08 03:02:39;;;;;;;1.80;1.27;;;14.20;97.20;;;;;;5134104;27;20109;-68
2023/08/08 03:05:05;;;;;;;1.50;1.40;;;14.20;97.10;;;;;;5134176;27;20022;-68
2023/08/08 03:07:31;;;;;;;2.75;1.50;;;14.20;97.20;;;;;;5136044;27;20030;-67
2023/08/08 03:09:57;;;;;;;2.42;1.35;;;14.20;97.10;;;;;;5136476;27;20047;-67
2023/08/08 03:12:22;;;;;;;2.33;1.40;;;14.20;97.10;;;;;;5135743;27;20487;-68
2023/08/08 03:14:48;;;;;;;2.60;1.05;;;14.20;97.10;;;;;;5136173;27;20080;-69
2023/08/08 03:17:13;;;;;;;2.72;1.42;;;14.20;97.20;;;;;;5135655;27;20023;-69
2023/08/08 03:19:39;;;;;;;4.05;1.50;;;14.10;97.20;;;;;;5134097;27;20034;-69
2023/08/08 03:22:05;;;;;;;1.77;1.20;;;14.10;97.20;;;;;;5134308;27;20384;-69
2023/08/08 03:24:30;;;;;;;2.50;1.20;;;14.10;97.30;;;;;;5132564;27;20035;-69
2023/08/08 03:26:56;;;;;;;1.73;1.10;;;14.10;97.30;;;;;;5133994;27;20161;-69
2023/08/08 03:29:21;;;;;;;3.63;1.25;;;14.10;97.30;;;;;;5134006;28;20079;-70
2023/08/08 03:31:47;;;;;;;2.40;1.50;;;14.10;97.30;;;;;;5134133;27;20019;-69
2023/08/08 03:34:13;;;;;;;1.92;1.55;;;14.10;97.40;;;;;;5133966;27;20041;-69
2023/08/08 03:36:38;;;;;;;2.90;1.25;;;14.10;97.40;;;;;;5133432;28;20374;-69
2023/08/08 03:39:04;;;;;;;3.67;1.20;;;14.10;97.50;;;;;;5129833;28;20043;-67
2023/08/08 03:41:30;;;;;;;2.38;1.42;;;14.10;97.50;;;;;;5134612;27;20027;-69
2023/08/08 03:43:56;;;;;;;3.28;1.60;;;14.10;97.50;;;;;;5130921;28;20067;-68
2023/08/08 03:46:22;;;;;;;1.48;1.38;;;14.10;97.60;;;;;;5132792;28;20063;-69
2023/08/08 03:48:48;;;;;;;1.77;1.30;;;14.10;97.50;;;;;;5130747;28;20089;-69
2023/08/08 03:51:13;;;;;;;3.60;1.38;;;14.10;97.50;;;;;;5131028;28;20035;-69
2023/08/08 03:53:40;;;;;;;1.75;1.30;;;14.10;97.40;;;;;;5133010;28;20482;-69
2023/08/08 03:56:07;;;;;;;2.70;1.38;;;14.10;97.40;;;;;;5133377;28;20409;-67
2023/08/08 03:58:32;;;;;;;2.38;1.30;;;14.20;97.30;;;;;;5132711;28;20049;-67
2023/08/08 04:00:58;;;;;;;2.53;1.30;;;14.20;97.30;;;;;;5133073;28;20495;-67
2023/08/08 04:03:24;;;;;;;2.42;1.60;;;14.20;97.20;;;;;;5132852;28;20091;-67
2023/08/08 04:05:49;;;;;;;3.83;1.25;;;14.20;97.10;;;;;;5133194;28;20031;-66
2023/08/08 04:08:15;;;;;;;2.70;1.52;;;14.20;97.10;;;;;;5133119;28;20016;-67
2023/08/08 04:10:41;;;;;;;2.30;1.20;;;14.20;97.10;;;;;;5108333;28;20059;-67
2023/08/08 04:13:07;;;;;;;2.08;1.50;;;14.30;97.10;;;;;;5120281;28;20032;-67
2023/08/08 04:15:33;;;;;;;3.55;1.45;;;14.30;97.00;;;;;;5121123;28;20027;-67
2023/08/08 04:17:58;;;;;;;2.15;1.40;;;14.30;96.90;;;;;;5131102;28;20024;-67
2023/08/08 04:20:24;;;;;;;2.83;1.20;;;14.30;96.80;;;;;;5122985;28;20500;-67
2023/08/08 04:22:50;;;;;;;3.38;1.70;;;14.40;96.70;;;;;;5119349;28;20034;-68
2023/08/08 04:25:15;;;;;;;2.95;1.20;;;14.40;96.50;;;;;;5131673;28;20557;-67
2023/08/08 04:27:41;;;;;;;4.53;1.48;;;14.40;96.40;;;;;;5130212;28;20030;-70
2023/08/08 04:30:07;;;;;;;2.05;1.23;;;14.50;96.30;;;;;;5130443;28;20026;-67
2023/08/08 04:32:33;;;;;;;2.42;1.25;;;14.50;96.30;;;;;;5129846;28;20491;-67
2023/08/08 04:34:58;;;;;;;2.78;1.13;;;14.60;96.00;;;;;;5132534;27;20031;-67
2023/08/08 04:37:24;;;;;;;3.78;1.40;;;14.70;95.80;;;;;;5135486;27;20068;-67
2023/08/08 04:39:50;;;;;;;1.30;1.20;;;14.80;95.40;;;;;;5124886;27;20519;-67
2023/08/08 04:42:15;;;;;;;1.63;1.10;;;14.90;95.00;;;;;;5135110;27;20084;-67
2023/08/08 04:44:41;;;;;;;1.88;1.30;;;15.00;94.70;;;;;;5135324;27;20031;-69
2023/08/08 04:47:06;;;;;;;1.85;1.33;;;15.00;94.50;;;;;;5135409;27;20027;-67
2023/08/08 04:49:32;;;;;;;1.80;1.30;;;15.10;94.20;;;;;;5133466;27;20043;-67
2023/08/08 04:51:58;;;;;;;1.58;1.20;;;15.10;94.00;;;;;;5135823;27;20019;-67
2023/08/08 04:54:23;;;;;;;1.30;0.95;;;15.10;93.90;;;;;;5135915;27;20035;-67
2023/08/08 04:56:49;;;;;;;1.92;1.17;;;15.20;93.70;;;;;;5135864;27;20477;-67
2023/08/08 04:59:14;;;;;;;2.63;1.15;;;15.20;93.80;;;;;;5135601;27;20027;-67
2023/08/08 05:01:40;;;;;;;2.05;1.30;;;15.20;93.50;;;;;;5136002;27;20408;-67
2023/08/08 05:04:06;;;;;;;1.00;0.90;;;15.30;93.40;;;;;;5136537;27;20547;-67
2023/08/08 05:06:31;;;;;;;1.77;1.20;;;15.30;93.40;;;;;;5135729;27;20027;-69
2023/08/08 05:08:57;;;;;;;3.10;1.17;;;15.30;93.30;;;;;;5136532;27;20375;-69
2023/08/08 05:11:23;;;;;;;3.50;1.48;;;15.30;93.30;;;;;;5136245;27;20034;-68
2023/08/08 05:13:49;;;;;;;2.78;1.38;;;15.30;93.20;;;;;;5135588;27;20042;-68
2023/08/08 05:16:14;;;;;;;1.80;1.10;;;15.40;93.20;;;;;;5135955;27;20027;-69
2023/08/08 05:18:40;;;;;;;4.15;1.48;;;15.40;93.20;;;;;;5135422;27;20015;-68
2023/08/08 05:21:06;;;;;;;1.75;1.10;;;15.60;93.10;;;;;;5135495;27;20084;-69
2023/08/08 05:23:32;;;;;;;2.30;1.17;;;15.80;93.00;;;;;;5129477;27;20023;-69
2023/08/08 05:25:58;;;;;;;4.93;1.23;;;16.00;92.60;;;;;;5135659;27;20024;-68
2023/08/08 05:28:23;;;;;;;2.22;1.20;;;16.20;91.60;;;;;;5135549;27;20059;-68
2023/08/08 05:30:49;;;;;;;3.80;1.35;;;16.30;91.20;;;;;;5135090;27;20046;-68
2023/08/08 05:33:14;;;;;;;1.60;1.20;;;16.50;90.90;;;;;;5135369;27;20027;-68
2023/08/08 05:35:40;;;;;;;2.05;1.30;;;16.80;90.20;;;;;;5135372;27;20054;-68
2023/08/08 05:38:06;;;;;;;2.53;1.20;;;17.20;90.20;;;;;;5135492;27;20066;-68
2023/08/08 05:40:35;;;;;;;1.80;1.15;;;17.60;87.30;;;;;;5135392;27;20034;-68
2023/08/08 05:43:00;;;;;;;1.85;1.20;;;18.30;84.60;;;;;;5135839;27;20156;-67
2023/08/08 05:45:26;;;;;;;2.05;1.23;;;18.90;80.40;;;;;;5134817;27;20056;-69
2023/08/08 05:47:52;;;;;;;2.80;1.08;;;19.50;77.60;;;;;;5133959;27;20026;-68
2023/08/08 05:50:17;;;;;;;1.25;1.00;;;20.40;75.90;;;;;;5135072;27;20040;-68
2023/08/08 05:52:43;;;;;;;3.67;1.63;;;20.90;70.40;;;;;;5134461;27;20486;-68
2023/08/08 05:55:09;;;;;;;1.80;1.17;;;21.60;67.60;;;;;;5134851;27;20027;-68
2023/08/08 05:57:35;;;;;;;1.73;1.25;;;22.20;65.00;;;;;;5134716;27;20106;-68
2023/08/08 06:00:00;;;;;;;1.88;1.20;;;22.90;62.80;;;;;;5135417;27;20420;-69
2023/08/08 06:02:26;;;;;;;0.82;0.82;;;23.00;60.80;;;;;;5135106;27;20027;-67
2023/08/08 06:04:51;;;;;;;1.40;0.70;;;23.10;59.20;;;;;;5134396;27;20405;-68
2023/08/08 06:07:17;;;;;;;1.38;1.13;;;23.50;58.10;;;;;;5135236;27;20079;-69
2023/08/08 06:09:43;;;;;;;3.35;1.17;;;23.90;56.90;;;;;;5134791;27;20047;-69
2023/08/08 06:12:09;;;;;;;2.25;1.20;;;24.20;55.20;;;;;;5135157;27;20050;-68
2023/08/08 06:14:34;;;;;;;2.60;1.00;;;24.50;54.70;;;;;;5134035;27;20034;-67
2023/08/08 06:17:00;;;;;;;2.55;1.08;;;24.60;53.20;;;;;;5134616;27;20027;-67
2023/08/08 06:19:26;;;;;;;3.10;0.98;;;24.90;52.10;;;;;;5135203;27;20420;-66
2023/08/08 06:21:51;;;;;;;1.60;1.27;;;25.20;52.10;;;;;;5134354;27;20048;-67
2023/08/08 06:24:17;;;;;;;1.65;0.93;;;25.30;50.20;;;;;;5134123;27;20072;-67
2023/08/08 06:26:43;;;;;;;2.95;1.20;;;25.10;49.90;;;;;;5133613;27;20016;-68
2023/08/08 06:29:08;;;;;;;2.35;1.00;;;25.10;50.30;;;;;;5133986;27;20027;-68
2023/08/08 06:31:34;;;;;;;1.17;1.08;;;25.00;50.00;;;;;;5133888;27;20015;-69
2023/08/08 06:33:59;;;;;;;1.08;0.98;;;24.90;49.90;;;;;;5133797;27;20095;-68
2023/08/08 06:36:25;;;;;;;2.65;0.98;;;25.20;49.90;;;;;;5134046;27;20023;-68
2023/08/08 06:38:51;;;;;;;1.77;0.85;;;25.40;49.50;;;;;;5133795;27;20080;-68
2023/08/08 06:41:16;;;;;;;1.27;0.90;;;25.60;49.30;;;;;;5133903;27;20019;-67
2023/08/08 06:43:42;;;;;;;1.30;0.98;;;26.00;48.90;;;;;;5133728;27;20023;-66
2023/08/08 06:46:07;;;;;;;2.45;1.10;;;25.90;47.80;;;;;;5133789;27;20446;-67
2023/08/08 06:48:33;;;;;;;5.10;1.20;;;25.20;47.90;;;;;;5134383;27;20050;-69
2023/08/08 06:50:58;;;;;;;1.85;0.90;;;24.50;49.20;;;;;;5134599;27;20037;-68
2023/08/08 06:53:24;;;;;;;1.48;1.00;;;23.80;51.70;;;;;;5134124;27;20444;-66
2023/08/08 06:55:50;;;;;;;3.30;0.93;;;23.70;51.30;;;;;;5133711;27;20466;-66
2023/08/08 06:58:15;;;;;;;2.22;1.10;;;23.50;52.40;;;;;;5130849;27;20023;-66
2023/08/08 07:00:41;;;;;;;1.23;1.00;;;23.60;51.40;;;;;;5133928;27;20382;-67
2023/08/08 07:03:06;;;;;;;3.30;1.05;;;23.60;52.10;;;;;;5134059;27;20027;-66
2023/08/08 07:05:32;;;;;;;1.75;0.90;;;24.20;52.40;;;;;;5134065;27;20027;-66
2023/08/08 07:07:58;;;;;;;2.03;1.30;;;24.50;50.20;;;;;;5133757;27;20051;-66
2023/08/08 07:10:23;;;;;;;2.85;1.17;;;24.50;49.80;;;;;;5133935;27;20428;-67
2023/08/08 07:12:49;;;;;;;1.50;1.10;;;24.30;49.50;;;;;;5133462;27;20062;-66
2023/08/08 07:15:15;;;;;;;3.30;1.20;;;24.70;49.80;;;;;;5134016;27;20079;-66
2023/08/08 07:17:40;;;;;;;6.15;1.10;;;24.50;49.30;;;;;;5133641;27;20072;-66
2023/08/08 07:20:07;;;;;;;3.22;0.95;;;24.90;50.10;;;;;;5134005;27;20019;-67
2023/08/08 07:22:33;;;;;;;1.88;1.10;;;25.60;48.70;;;;;;5133907;27;20425;-66
2023/08/08 07:24:59;;;;;;;2.58;1.20;;;25.50;47.40;;;;;;5133512;27;20080;-66
2023/08/08 07:27:26;;;;;;;3.13;1.20;;;26.20;47.90;;;;;;5134021;27;20031;-67
2023/08/08 07:29:52;;;;;;;1.40;0.90;;;27.20;48.00;;;;;;5133542;27;20027;-67
2023/08/08 07:32:18;;;;;;;1.42;1.25;;;27.80;45.30;;;;;;5115356;27;20027;-66
2023/08/08 07:34:43;;;;;;;1.40;1.10;;;28.10;43.70;;;;;;5133113;27;20070;-67
2023/08/08 07:37:09;;;;;;;1.25;1.10;;;28.30;43.20;;;;;;5133874;28;20050;-66
2023/08/08 07:39:34;;;;;;;2.60;1.10;;;28.30;43.10;;;;;;5133803;28;20462;-67
2023/08/08 07:42:00;;;;;;;1.30;1.20;;;28.30;43.30;;;;;;5133035;28;20489;-67
2023/08/08 07:44:26;;;;;;;2.65;1.13;;;27.80;42.90;;;;;;5133785;28;20027;-67
2023/08/08 07:46:51;;;;;;;1.42;1.02;;;27.00;43.70;;;;;;5133275;28;20421;-66
2023/08/08 07:49:17;;;;;;;2.10;1.33;;;26.30;46.20;;;;;;5133678;28;20055;-67
2023/08/08 07:51:43;;;;;;;1.83;1.13;;;26.20;45.50;;;;;;5133290;28;20386;-67
2023/08/08 07:54:10;;;;;;;2.00;1.35;;;25.60;46.70;;;;;;5133413;28;20068;-66
2023/08/08 07:56:36;;;;;;;1.92;1.15;;;25.20;47.20;;;;;;5133621;28;20023;-66
2023/08/08 07:59:02;;;;;;;1.67;1.10;;;24.30;48.30;;;;;;5132708;28;20048;-66
2023/08/08 08:01:28;;;;;;;2.42;1.02;;;23.80;49.60;;;;;;5133454;28;20026;-66
2023/08/08 08:03:54;;;;;;;3.47;1.35;;;23.80;50.10;;;;;;5132614;28;20031;-66
2023/08/08 08:06:19;;;;;;;2.80;1.90;;;24.10;49.70;;;;;;5133210;28;20077;-66
2023/08/08 08:08:45;;;;;;;2.13;1.13;;;24.20;50.00;;;;;;5132939;27;20051;-64
2023/08/08 08:11:12;;;;;;;4.13;1.17;;;23.80;49.50;;;;;;5137119;27;20499;-65
2023/08/08 08:13:39;;;;;;;2.42;1.15;;;23.50;50.00;;;;;;5137278;27;20063;-65
2023/08/08 08:16:05;;;;;;;2.40;1.13;;;23.30;51.30;;;;;;5137174;27;20035;-65
2023/08/08 08:18:30;;;;;;;2.55;1.27;;;22.80;52.10;;;;;;5137188;27;20379;-65
2023/08/08 08:20:56;;;;;;;1.45;1.10;;;22.50;53.40;;;;;;5136754;27;20019;-67
2023/08/08 08:23:22;;;;;;;3.65;1.05;;;22.30;53.80;;;;;;5137138;27;20035;-67
2023/08/08 08:25:48;;;;;;;1.65;1.10;;;22.00;54.40;;;;;;5136768;27;20031;-67
2023/08/08 08:28:14;;;;;;;3.70;1.42;;;21.70;55.50;;;;;;5137219;27;20050;-66
2023/08/08 08:30:40;;;;;;;1.48;1.15;;;21.40;56.40;;;;;;5137008;27;20383;-66
2023/08/08 08:33:07;;;;;;;2.20;1.10;;;21.10;56.50;;;;;;5136246;27;20042;-66
2023/08/08 08:35:34;;;;;;;1.45;1.10;;;20.80;57.50;;;;;;5136752;27;20066;-66
2023/08/08 08:37:59;;;;;;;1.92;1.05;;;20.50;58.90;;;;;;5136516;27;20034;-66
2023/08/08 08:40:26;;;;;;;3.00;1.10;;;20.30;59.90;;;;;;5136998;27;20047;-66
2023/08/08 08:42:52;;;;;;;3.63;1.23;;;20.20;60.30;;;;;;5136431;27;20111;-66
2023/08/08 08:45:20;;;;;;;2.20;1.30;;;20.10;61.00;;;;;;5136562;27;20098;-66
2023/08/08 08:47:48;;;;;;;2.35;1.02;;;20.00;61.80;;;;;;5136305;27;20029;-66
2023/08/08 08:50:15;;;;;;;1.83;1.20;;;19.90;62.20;;;;;;5129385;27;20463;-66
2023/08/08 08:52:43;;;;;;;1.58;1.23;;;19.80;62.40;;;;;;5116134;28;20042;-66
2023/08/08 08:55:09;;;;;;;1.88;1.17;;;19.80;62.40;;;;;;5116338;28;20035;-66
2023/08/08 08:57:35;;;;;;;1.58;1.00;;;19.70;62.40;;;;;;5115984;28;20028;-66
2023/08/08 09:00:01;;;;;;;1.05;0.93;;;19.70;62.70;;;;;;5115583;28;20498;-66
2023/08/08 09:02:27;;;;;;;2.67;1.20;;;19.60;62.30;;;;;;5126852;27;20027;-66
2023/08/08 09:04:54;;;;;;;2.78;0.90;;;19.50;62.70;;;;;;5135920;27;20159;-66
2023/08/08 09:07:22;;;;;;;1.85;1.20;;;19.50;62.30;;;;;;5136386;27;20027;-66
2023/08/08 09:09:48;;;;;;;1.55;1.00;;;19.30;62.50;;;;;;5136092;27;20042;-66
2023/08/08 09:12:16;;;;;;;1.40;1.08;;;19.30;62.90;;;;;;5136293;27;20024;-66
2023/08/08 09:14:42;;;;;;;1.10;0.80;;;19.40;62.70;;;;;;5136166;27;20042;-66
2023/08/08 09:17:13;;;;;;;1.88;1.10;;;19.50;62.70;;;;;;5135513;27;20437;-66
2023/08/08 09:19:44;;;;;;;1.60;1.35;;;19.60;63.40;;;;;;5136271;27;20027;-66
2023/08/08 09:22:09;;;;;;;1.58;1.20;;;19.70;63.10;;;;;;5136015;27;20088;-67
2023/08/08 09:24:41;;;;;;;2.38;1.20;;;19.80;62.50;;;;;;5136103;27;20031;-66
2023/08/08 09:27:10;;;;;;;2.05;1.00;;;20.00;62.00;;;;;;5135997;27;20440;-67
2023/08/08 09:29:36;;;;;;;2.30;1.20;;;20.20;60.60;;;;;;5135970;27;20267;-66
2023/08/08 09:32:06;;;;;;;1.58;1.00;;;20.40;61.10;;;;;;5135315;27;20035;-67
2023/08/08 09:34:31;;;;;;;1.88;1.10;;;20.50;60.70;;;;;;5135800;27;20031;-66
2023/08/08 09:36:58;;;;;;;2.33;1.10;;;20.60;60.50;;;;;;5135448;27;20459;-67
2023/08/08 09:39:23;;;;;;;1.50;1.00;;;20.80;60.50;;;;;;5135939;27;20015;-66
2023/08/08 09:41:50;;;;;;;5.38;1.00;;;20.90;60.10;;;;;;5134985;27;20023;-66
2023/08/08 09:44:16;;;;;;;1.92;1.08;;;21.10;58.20;;;;;;5135566;27;20031;-66
2023/08/08 09:46:42;;;;;;;1.95;1.10;;;21.20;58.90;;;;;;5135650;27;20023;-66
2023/08/08 09:49:12;;;;;;;3.35;1.30;;;21.30;58.30;;;;;;5135196;27;20058;-65
2023/08/08 09:51:38;;;;;;;1.63;0.88;;;21.40;58.30;;;;;;5135700;27;20019;-65
2023/08/08 09:54:06;;;;;;;2.63;1.17;;;21.50;57.70;;;;;;5135130;27;20034;-65
2023/08/08 09:56:33;;;;;;;2.13;1.05;;;21.60;57.00;;;;;;5135444;27;20023;-66
2023/08/08 09:59:01;;;;;;;2.30;1.10;;;21.70;55.40;;;;;;5134642;27;20028;-66
2023/08/08 10:01:27;;;;;;;1.65;0.98;;;21.80;55.60;;;;;;5135399;27;20027;-66
2023/08/08 10:03:54;;;;;;;4.22;1.27;;;21.90;54.80;;;;;;5134644;27;20027;-66
2023/08/08 10:06:20;;;;;;;2.97;1.27;;;21.90;54.50;;;;;;5135372;27;20109;-66
2023/08/08 10:08:46;;;;;;;1.83;1.05;;;21.90;54.20;;;;;;5135256;27;20066;-67
2023/08/08 10:11:14;;;;;;;1.42;0.80;;;22.00;54.30;;;;;;5134683;27;20031;-66
2023/08/08 10:13:48;;;;;;;1.52;1.10;;;22.10;55.80;;;;;;5134830;27;20493;-66
2023/08/08 10:16:16;;;;;;;2.30;1.00;;;22.30;54.30;;;;;;5134676;27;20455;-66
2023/08/08 10:18:42;;;;;;;1.17;0.95;;;22.40;54.30;;;;;;5134616;27;20455;-66
2023/08/08 10:21:09;;;;;;;0.80;0.80;;;22.50;54.20;;;;;;5134116;27;20027;-66
2023/08/08 10:23:39;;;;;;;1.65;1.00;;;22.60;53.30;;;;;;5134903;27;20046;-66
2023/08/08 10:26:17;;;;;;;2.97;1.10;;;22.60;52.90;;;;;;5134161;27;20027;-66
2023/08/08 10:28:53;;;;;;;1.60;0.98;;;22.60;52.40;;;;;;5134841;27;20038;-67
2023/08/08 10:31:20;;;;;;;2.13;0.95;;;22.50;53.70;;;;;;5134730;27;20096;-66
2023/08/08 10:33:46;;;;;;;1.00;0.90;;;22.60;54.10;;;;;;5134072;27;20027;-66
2023/08/08 10:36:16;;;;;;;2.55;1.10;;;22.70;54.20;;;;;;5134160;27;20034;-66
2023/08/08 10:38:46;;;;;;;4.72;1.00;;;22.60;52.50;;;;;;5134525;27;20023;-66
2023/08/08 10:41:13;;;;;;;1.50;1.00;;;22.50;52.70;;;;;;5134420;27;20534;-67
2023/08/08 10:43:51;;;;;;;2.72;0.90;;;22.50;52.20;;;;;;5130825;27;20384;-67
2023/08/08 10:46:24;;;;;;;1.58;0.90;;;22.40;52.40;;;;;;5134798;27;20025;-67
2023/08/08 10:48:54;;;;;;;2.45;1.00;;;22.40;52.50;;;;;;5133917;27;20082;-67
2023/08/08 10:51:20;;;;;;;1.77;0.70;;;22.50;51.10;;;;;;5134437;27;20027;-67
2023/08/08 10:53:50;;;;;;;1.23;0.80;;;22.50;50.80;;;;;;5134182;27;20043;-66
2023/08/08 10:56:18;;;;;;;2.15;0.90;;;22.40;51.10;;;;;;5133904;27;20019;-66
2023/08/08 10:58:48;;;;;;;1.27;1.05;;;22.50;51.40;;;;;;5133590;27;20031;-67
2023/08/08 11:01:16;;;;;;;3.25;1.27;;;22.50;50.50;;;;;;5113180;28;20089;-67
2023/08/08 11:03:43;;;;;;;1.27;1.00;;;22.50;51.10;;;;;;5113512;28;20133;-66
2023/08/08 11:06:10;;;;;;;2.22;1.00;;;22.50;50.50;;;;;;5113107;28;20103;-66
2023/08/08 11:08:40;;;;;;;1.40;0.80;;;22.50;49.90;;;;;;5113308;28;20391;-66
2023/08/08 11:11:06;;;;;;;1.42;0.77;;;22.50;49.40;;;;;;5113051;28;20106;-66
2023/08/08 11:13:32;;;;;;;1.55;0.90;;;22.40;49.90;;;;;;5113290;28;20118;-66
2023/08/08 11:15:58;;;;;;;2.53;0.80;;;22.40;50.30;;;;;;5113036;28;20024;-66
2023/08/08 11:18:25;;;;;;;4.38;1.00;;;22.40;50.30;;;;;;5113340;28;20039;-66
2023/08/08 11:20:51;;;;;;;2.80;0.85;;;22.50;50.10;;;;;;5113328;28;20455;-66
2023/08/08 11:23:18;;;;;;;1.70;0.90;;;22.50;49.50;;;;;;5112834;28;20028;-66
2023/08/08 11:25:45;;;;;;;1.00;0.90;;;22.50;49.10;;;;;;5113279;28;20059;-66
2023/08/08 11:28:12;;;;;;;1.38;0.88;;;22.40;49.10;;;;;;5112502;28;20031;-66
2023/08/08 11:30:41;;;;;;;1.15;1.00;;;22.40;48.90;;;;;;5113162;28;20026;-66
2023/08/08 11:33:07;;;;;;;1.08;0.77;;;22.40;49.30;;;;;;5112542;28;20031;-66
2023/08/08 11:35:34;;;;;;;1.35;1.10;;;22.50;50.00;;;;;;5113057;28;20020;-66
2023/08/08 11:38:00;;;;;;;3.28;0.98;;;22.60;50.00;;;;;;5112725;28;20036;-66
2023/08/08 11:40:28;;;;;;;2.78;1.00;;;22.80;50.00;;;;;;5113118;28;20070;-66
2023/08/08 11:42:54;;;;;;;3.47;0.90;;;22.80;49.20;;;;;;5112758;28;20034;-66
2023/08/08 11:45:20;;;;;;;1.98;0.80;;;23.00;49.40;;;;;;5114915;28;20023;-66
2023/08/08 11:47:50;;;;;;;2.60;1.10;;;23.00;49.40;;;;;;5117047;28;20041;-66
2023/08/08 11:50:15;;;;;;;1.27;0.70;;;23.00;49.20;;;;;;5117050;28;20063;-66
2023/08/08 11:52:45;;;;;;;3.90;1.17;;;23.00;48.40;;;;;;5117050;28;20020;-66
2023/08/08 11:55:11;;;;;;;1.15;0.88;;;23.00;48.30;;;;;;5116826;28;20062;-66
2023/08/08 11:57:39;;;;;;;0.80;0.73;;;23.00;46.90;;;;;;5125673;27;20068;-66
2023/08/08 12:00:07;;;;;;;2.78;0.90;;;23.00;45.30;;;;;;5137312;27;20027;-66
2023/08/08 12:02:34;;;;;;;1.02;0.77;;;23.00;45.60;;;;;;5137612;27;20019;-66
2023/08/08 12:05:12;;;;;;;1.85;0.85;;;23.00;47.10;;;;;;5137100;27;20063;-66
2023/08/08 12:07:41;;;;;;;2.97;1.00;;;23.10;45.80;;;;;;5137542;27;20023;-66
2023/08/08 12:10:20;;;;;;;1.55;1.00;;;23.10;45.00;;;;;;5137034;27;20030;-66
2023/08/08 12:12:47;;;;;;;2.38;1.10;;;23.10;45.40;;;;;;5137142;27;20364;-66
2023/08/08 12:15:13;;;;;;;1.20;0.85;;;23.20;46.20;;;;;;5136882;27;20127;-66
2023/08/08 12:17:39;;;;;;;1.50;0.90;;;23.10;46.00;;;;;;5137330;27;20456;-66
2023/08/08 12:20:07;;;;;;;2.95;0.98;;;23.20;45.80;;;;;;5136938;27;20023;-66
2023/08/08 12:22:33;;;;;;;1.38;0.85;;;23.30;45.90;;;;;;5137219;27;20023;-66
2023/08/08 12:24:59;;;;;;;2.97;1.00;;;23.30;45.60;;;;;;5136783;27;20034;-68
2023/08/08 12:27:25;;;;;;;2.70;1.20;;;23.30;45.00;;;;;;5137246;27;20027;-66
2023/08/08 12:29:51;;;;;;;1.70;0.90;;;23.30;44.10;;;;;;5118808;27;20419;-66
2023/08/08 12:32:19;;;;;;;1.77;0.98;;;23.20;44.40;;;;;;5136633;27;20110;-66
2023/08/08 12:34:45;;;;;;;2.33;1.00;;;23.20;44.90;;;;;;5133449;27;20019;-66
2023/08/08 12:37:11;;;;;;;1.75;1.00;;;23.30;44.40;;;;;;5136665;27;20424;-66
2023/08/08 12:39:36;;;;;;;2.22;0.95;;;23.20;44.00;;;;;;5136994;27;20360;-66
2023/08/08 12:42:02;;;;;;;1.65;1.00;;;23.10;45.20;;;;;;5136466;27;20023;-66
2023/08/08 12:44:27;;;;;;;1.38;1.05;;;23.10;45.00;;;;;;5137102;27;20087;-66